sensor_id;sensor_type;location;lat;lon;timestamp;pressure;altitude;pressure_sealevel;temperature;humidity
56176;BME280;63065;51.082;17.016;2023-05-03T00:00:55;101146.10;;;14.57;42.23
56176;BME280;63065;51.082;17.016;2023-05-03T00:03:21;101142.87;;;14.89;40.86
56176;BME280;63065;51.082;17.016;2023-05-03T00:05:46;101138.72;;;15.16;39.71
56176;BME280;63065;51.082;17.016;2023-05-03T00:08:12;101143.87;;;14.90;39.43
56176;BME280;63065;51.082;17.016;2023-05-03T00:10:38;101144.13;;;15.51;38.82
56176;BME280;63065;51.082;17.016;2023-05-03T00:13:03;101153.64;;;13.07;41.34
56176;BME280;63065;51.082;17.016;2023-05-03T00:15:29;101146.86;;;14.37;39.06
56176;BME280;63065;51.082;17.016;2023-05-03T00:17:54;101148.30;;;15.45;37.60
56176;BME280;63065;51.082;17.016;2023-05-03T00:20:20;101149.74;;;14.69;37.98
56176;BME280;63065;51.082;17.016;2023-05-03T00:22:45;101155.11;;;15.45;37.40
56176;BME280;63065;51.082;17.016;2023-05-03T00:25:11;101158.34;;;15.06;37.70
56176;BME280;63065;51.082;17.016;2023-05-03T00:27:37;101155.72;;;14.61;37.22
56176;BME280;63065;51.082;17.016;2023-05-03T00:30:03;101156.98;;;14.95;37.55
56176;BME280;63065;51.082;17.016;2023-05-03T00:32:27;101159.67;;;13.90;37.87
56176;BME280;63065;51.082;17.016;2023-05-03T00:34:53;101159.61;;;15.12;37.27
56176;BME280;63065;51.082;17.016;2023-05-03T00:37:18;101160.85;;;14.12;38.25
56176;BME280;63065;51.082;17.016;2023-05-03T00:39:44;101163.43;;;14.02;38.70
56176;BME280;63065;51.082;17.016;2023-05-03T00:42:10;101164.56;;;14.36;38.29
56176;BME280;63065;51.082;17.016;2023-05-03T00:44:35;101163.68;;;14.19;38.89
56176;BME280;63065;51.082;17.016;2023-05-03T00:47:01;101166.06;;;14.70;37.92
56176;BME280;63065;51.082;17.016;2023-05-03T00:49:26;101164.79;;;14.23;38.47
56176;BME280;63065;51.082;17.016;2023-05-03T00:51:52;101173.53;;;12.58;40.31
56176;BME280;63065;51.082;17.016;2023-05-03T00:54:18;101166.26;;;12.09;40.96
56176;BME280;63065;51.082;17.016;2023-05-03T00:56:43;101165.99;;;13.64;39.26
56176;BME280;63065;51.082;17.016;2023-05-03T00:59:10;101163.12;;;13.45;39.78
56176;BME280;63065;51.082;17.016;2023-05-03T01:01:34;101164.41;;;12.51;39.79
56176;BME280;63065;51.082;17.016;2023-05-03T01:04:01;101169.04;;;12.35;40.70
56176;BME280;63065;51.082;17.016;2023-05-03T01:06:31;101172.80;;;12.21;40.71
56176;BME280;63065;51.082;17.016;2023-05-03T01:08:57;101173.87;;;13.26;39.03
56176;BME280;63065;51.082;17.016;2023-05-03T01:11:21;101173.12;;;14.07;38.34
56176;BME280;63065;51.082;17.016;2023-05-03T01:13:50;101180.22;;;12.99;38.75
56176;BME280;63065;51.082;17.016;2023-05-03T01:16:14;101184.85;;;13.29;38.65
56176;BME280;63065;51.082;17.016;2023-05-03T01:18:36;101193.03;;;12.32;39.59
56176;BME280;63065;51.082;17.016;2023-05-03T01:20:59;101189.84;;;11.98;41.30
56176;BME280;63065;51.082;17.016;2023-05-03T01:23:32;101191.22;;;12.68;39.87
56176;BME280;63065;51.082;17.016;2023-05-03T01:25:51;101193.94;;;12.49;39.59
56176;BME280;63065;51.082;17.016;2023-05-03T01:28:16;101188.09;;;13.29;38.35
56176;BME280;63065;51.082;17.016;2023-05-03T01:30:42;101191.79;;;13.95;37.37
56176;BME280;63065;51.082;17.016;2023-05-03T01:33:12;101195.06;;;13.78;37.54
56176;BME280;63065;51.082;17.016;2023-05-03T01:35:38;101196.92;;;13.15;38.44
56176;BME280;63065;51.082;17.016;2023-05-03T01:37:59;101200.12;;;12.57;39.19
56176;BME280;63065;51.082;17.016;2023-05-03T01:40:24;101201.04;;;13.52;38.37
56176;BME280;63065;51.082;17.016;2023-05-03T01:42:49;101202.45;;;12.85;38.30
56176;BME280;63065;51.082;17.016;2023-05-03T01:45:15;101200.11;;;13.55;38.29
56176;BME280;63065;51.082;17.016;2023-05-03T01:47:40;101204.59;;;12.55;39.22
56176;BME280;63065;51.082;17.016;2023-05-03T01:50:07;101204.94;;;13.84;37.67
56176;BME280;63065;51.082;17.016;2023-05-03T01:52:32;101204.33;;;13.24;38.33
56176;BME280;63065;51.082;17.016;2023-05-03T01:54:58;101207.04;;;11.81;40.02
56176;BME280;63065;51.082;17.016;2023-05-03T01:57:23;101209.37;;;13.39;38.38
56176;BME280;63065;51.082;17.016;2023-05-03T01:59:49;101211.94;;;12.87;39.36
56176;BME280;63065;51.082;17.016;2023-05-03T02:02:15;101211.08;;;11.46;41.05
56176;BME280;63065;51.082;17.016;2023-05-03T02:04:41;101216.15;;;11.27;42.64
56176;BME280;63065;51.082;17.016;2023-05-03T02:07:05;101218.15;;;10.81;43.75
56176;BME280;63065;51.082;17.016;2023-05-03T02:09:31;101216.67;;;10.86;43.29
56176;BME280;63065;51.082;17.016;2023-05-03T02:11:57;101215.30;;;12.43;41.04
56176;BME280;63065;51.082;17.016;2023-05-03T02:14:22;101215.95;;;11.67;41.57
56176;BME280;63065;51.082;17.016;2023-05-03T02:16:47;101217.13;;;11.06;42.27
56176;BME280;63065;51.082;17.016;2023-05-03T02:19:13;101218.75;;;10.34;42.90
56176;BME280;63065;51.082;17.016;2023-05-03T02:21:38;101222.96;;;9.56;45.09
56176;BME280;63065;51.082;17.016;2023-05-03T02:24:04;101226.73;;;9.58;44.28
56176;BME280;63065;51.082;17.016;2023-05-03T02:26:29;101222.22;;;9.09;44.72
56176;BME280;63065;51.082;17.016;2023-05-03T02:28:54;101219.81;;;9.81;43.63
56176;BME280;63065;51.082;17.016;2023-05-03T02:31:19;101228.47;;;8.79;46.21
56176;BME280;63065;51.082;17.016;2023-05-03T02:33:45;101223.96;;;8.86;45.60
56176;BME280;63065;51.082;17.016;2023-05-03T02:36:10;101216.51;;;11.01;41.41
56176;BME280;63065;51.082;17.016;2023-05-03T02:38:35;101222.69;;;11.51;40.13
56176;BME280;63065;51.082;17.016;2023-05-03T02:41:01;101225.99;;;10.73;41.10
56176;BME280;63065;51.082;17.016;2023-05-03T02:43:26;101226.78;;;10.87;41.48
56176;BME280;63065;51.082;17.016;2023-05-03T02:45:52;101226.58;;;10.02;41.72
56176;BME280;63065;51.082;17.016;2023-05-03T02:48:17;101232.79;;;10.49;40.84
56176;BME280;63065;51.082;17.016;2023-05-03T02:50:43;101233.86;;;9.56;42.48
56176;BME280;63065;51.082;17.016;2023-05-03T02:53:08;101231.88;;;10.94;40.53
56176;BME280;63065;51.082;17.016;2023-05-03T02:55:34;101234.71;;;11.70;39.30
56176;BME280;63065;51.082;17.016;2023-05-03T02:57:59;101236.66;;;11.24;39.49
56176;BME280;63065;51.082;17.016;2023-05-03T03:00:24;101239.54;;;9.01;42.72
56176;BME280;63065;51.082;17.016;2023-05-03T03:02:50;101239.61;;;10.52;41.33
56176;BME280;63065;51.082;17.016;2023-05-03T03:05:15;101236.14;;;11.94;38.92
56176;BME280;63065;51.082;17.016;2023-05-03T03:07:41;101236.43;;;12.72;37.51
56176;BME280;63065;51.082;17.016;2023-05-03T03:10:07;101236.91;;;12.70;37.38
56176;BME280;63065;51.082;17.016;2023-05-03T03:12:34;101239.69;;;12.47;37.63
56176;BME280;63065;51.082;17.016;2023-05-03T03:14:58;101243.19;;;10.15;40.67
56176;BME280;63065;51.082;17.016;2023-05-03T03:17:23;101246.50;;;11.18;39.73
56176;BME280;63065;51.082;17.016;2023-05-03T03:19:48;101250.55;;;11.17;39.94
56176;BME280;63065;51.082;17.016;2023-05-03T03:22:13;101251.76;;;9.93;42.26
56176;BME280;63065;51.082;17.016;2023-05-03T03:24:39;101250.32;;;10.66;41.04
56176;BME280;63065;51.082;17.016;2023-05-03T03:27:04;101250.81;;;9.45;42.69
56176;BME280;63065;51.082;17.016;2023-05-03T03:29:31;101250.68;;;10.26;41.86
56176;BME280;63065;51.082;17.016;2023-05-03T03:31:55;101252.35;;;10.44;40.96
56176;BME280;63065;51.082;17.016;2023-05-03T03:34:21;101252.04;;;10.50;41.09
56176;BME280;63065;51.082;17.016;2023-05-03T03:36:46;101252.30;;;11.18;39.75
56176;BME280;63065;51.082;17.016;2023-05-03T03:39:11;101252.11;;;10.09;41.24
56176;BME280;63065;51.082;17.016;2023-05-03T03:41:36;101249.69;;;11.28;39.96
56176;BME280;63065;51.082;17.016;2023-05-03T03:44:01;101253.68;;;11.27;39.81
56176;BME280;63065;51.082;17.016;2023-05-03T03:46:27;101256.56;;;11.84;39.04
56176;BME280;63065;51.082;17.016;2023-05-03T03:48:53;101257.04;;;12.32;38.47
56176;BME280;63065;51.082;17.016;2023-05-03T03:51:18;101262.90;;;11.34;39.21
56176;BME280;63065;51.082;17.016;2023-05-03T03:53:43;101262.60;;;12.34;38.56
56176;BME280;63065;51.082;17.016;2023-05-03T03:56:09;101264.57;;;12.26;38.63
56176;BME280;63065;51.082;17.016;2023-05-03T03:58:34;101266.01;;;11.63;39.41
56176;BME280;63065;51.082;17.016;2023-05-03T04:01:00;101264.39;;;11.80;38.11
56176;BME280;63065;51.082;17.016;2023-05-03T04:03:26;101267.21;;;10.20;41.10
56176;BME280;63065;51.082;17.016;2023-05-03T04:05:51;101269.86;;;10.02;41.72
56176;BME280;63065;51.082;17.016;2023-05-03T04:08:17;101281.69;;;9.22;42.48
56176;BME280;63065;51.082;17.016;2023-05-03T04:10:42;101280.79;;;9.92;41.87
56176;BME280;63065;51.082;17.016;2023-05-03T04:13:08;101286.02;;;11.24;40.22
56176;BME280;63065;51.082;17.016;2023-05-03T04:15:34;101286.21;;;11.04;40.27
56176;BME280;63065;51.082;17.016;2023-05-03T04:17:58;101288.12;;;11.70;39.17
56176;BME280;63065;51.082;17.016;2023-05-03T04:20:24;101291.54;;;11.99;38.77
56176;BME280;63065;51.082;17.016;2023-05-03T04:22:49;101293.41;;;11.74;38.76
56176;BME280;63065;51.082;17.016;2023-05-03T04:25:14;101296.33;;;11.39;39.37
56176;BME280;63065;51.082;17.016;2023-05-03T04:27:39;101300.71;;;11.10;39.74
56176;BME280;63065;51.082;17.016;2023-05-03T04:30:05;101305.38;;;9.78;42.28
56176;BME280;63065;51.082;17.016;2023-05-03T04:32:30;101305.58;;;10.49;41.24
56176;BME280;63065;51.082;17.016;2023-05-03T04:34:55;101311.30;;;8.73;44.14
56176;BME280;63065;51.082;17.016;2023-05-03T04:37:21;101308.42;;;10.82;40.92
56176;BME280;63065;51.082;17.016;2023-05-03T04:39:46;101316.78;;;8.01;44.80
56176;BME280;63065;51.082;17.016;2023-05-03T04:42:12;101317.92;;;8.03;45.36
56176;BME280;63065;51.082;17.016;2023-05-03T04:44:38;101321.12;;;8.53;44.71
56176;BME280;63065;51.082;17.016;2023-05-03T04:47:03;101322.06;;;9.65;42.72
56176;BME280;63065;51.082;17.016;2023-05-03T04:49:28;101313.71;;;10.82;40.42
56176;BME280;63065;51.082;17.016;2023-05-03T04:51:54;101314.27;;;10.90;40.45
56176;BME280;63065;51.082;17.016;2023-05-03T04:54:19;101315.89;;;10.78;40.37
56176;BME280;63065;51.082;17.016;2023-05-03T04:56:44;101317.41;;;10.58;39.92
56176;BME280;63065;51.082;17.016;2023-05-03T04:59:10;101327.14;;;9.39;42.05
56176;BME280;63065;51.082;17.016;2023-05-03T05:01:35;101325.86;;;10.53;40.56
56176;BME280;63065;51.082;17.016;2023-05-03T05:04:01;101333.29;;;9.17;41.86
56176;BME280;63065;51.082;17.016;2023-05-03T05:06:26;101335.37;;;9.93;41.76
56176;BME280;63065;51.082;17.016;2023-05-03T05:08:51;101330.13;;;7.45;45.32
56176;BME280;63065;51.082;17.016;2023-05-03T05:11:17;101329.23;;;9.26;43.05
56176;BME280;63065;51.082;17.016;2023-05-03T05:13:42;101328.44;;;10.73;40.59
56176;BME280;63065;51.082;17.016;2023-05-03T05:16:08;101330.45;;;10.58;39.88
56176;BME280;63065;51.082;17.016;2023-05-03T05:18:33;101336.10;;;11.57;39.15
56176;BME280;63065;51.082;17.016;2023-05-03T05:20:59;101336.28;;;12.46;38.19
56176;BME280;63065;51.082;17.016;2023-05-03T05:23:24;101339.62;;;12.53;37.18
56176;BME280;63065;51.082;17.016;2023-05-03T05:25:50;101342.25;;;11.92;37.46
56176;BME280;63065;51.082;17.016;2023-05-03T05:28:15;101348.34;;;12.42;37.53
56176;BME280;63065;51.082;17.016;2023-05-03T05:30:41;101348.91;;;12.98;37.39
56176;BME280;63065;51.082;17.016;2023-05-03T05:33:06;101352.13;;;13.29;35.99
56176;BME280;63065;51.082;17.016;2023-05-03T05:35:32;101352.99;;;12.57;36.07
56176;BME280;63065;51.082;17.016;2023-05-03T05:37:58;101354.85;;;10.03;39.42
56176;BME280;63065;51.082;17.016;2023-05-03T05:40:22;101360.74;;;9.33;41.28
56176;BME280;63065;51.082;17.016;2023-05-03T05:42:48;101359.41;;;10.80;40.02
56176;BME280;63065;51.082;17.016;2023-05-03T05:45:13;101358.20;;;10.91;39.40
56176;BME280;63065;51.082;17.016;2023-05-03T05:47:39;101364.71;;;11.52;38.99
56176;BME280;63065;51.082;17.016;2023-05-03T05:50:05;101368.95;;;10.02;40.20
56176;BME280;63065;51.082;17.016;2023-05-03T05:52:30;101368.50;;;10.48;40.25
56176;BME280;63065;51.082;17.016;2023-05-03T05:54:55;101374.06;;;12.89;37.92
56176;BME280;63065;51.082;17.016;2023-05-03T05:57:20;101376.68;;;10.86;38.03
56176;BME280;63065;51.082;17.016;2023-05-03T05:59:45;101384.14;;;12.60;36.77
56176;BME280;63065;51.082;17.016;2023-05-03T06:02:14;101387.27;;;13.92;35.77
56176;BME280;63065;51.082;17.016;2023-05-03T06:04:36;101390.02;;;13.08;35.57
56176;BME280;63065;51.082;17.016;2023-05-03T06:07:01;101396.08;;;11.76;36.78
56176;BME280;63065;51.082;17.016;2023-05-03T06:09:27;101404.74;;;9.68;40.47
56176;BME280;63065;51.082;17.016;2023-05-03T06:11:52;101400.88;;;12.46;37.63
56176;BME280;63065;51.082;17.016;2023-05-03T06:14:17;101402.36;;;11.22;38.71
56176;BME280;63065;51.082;17.016;2023-05-03T06:16:43;101411.35;;;10.34;40.51
56176;BME280;63065;51.082;17.016;2023-05-03T06:19:08;101412.77;;;10.84;40.15
56176;BME280;63065;51.082;17.016;2023-05-03T06:21:34;101412.79;;;12.03;38.05
56176;BME280;63065;51.082;17.016;2023-05-03T06:23:59;101415.85;;;10.72;39.40
56176;BME280;63065;51.082;17.016;2023-05-03T06:26:25;101417.35;;;11.65;38.79
56176;BME280;63065;51.082;17.016;2023-05-03T06:28:50;101417.12;;;12.70;36.99
56176;BME280;63065;51.082;17.016;2023-05-03T06:31:16;101418.46;;;13.26;35.30
56176;BME280;63065;51.082;17.016;2023-05-03T06:33:41;101419.49;;;14.03;35.30
56176;BME280;63065;51.082;17.016;2023-05-03T06:36:07;101420.52;;;13.64;34.97
56176;BME280;63065;51.082;17.016;2023-05-03T06:38:33;101420.60;;;13.71;34.96
56176;BME280;63065;51.082;17.016;2023-05-03T06:40:58;101421.54;;;10.74;38.46
56176;BME280;63065;51.082;17.016;2023-05-03T06:43:23;101419.45;;;11.65;37.91
56176;BME280;63065;51.082;17.016;2023-05-03T06:45:50;101418.54;;;12.44;37.72
56176;BME280;63065;51.082;17.016;2023-05-03T06:48:15;101417.97;;;11.97;37.74
56176;BME280;63065;51.082;17.016;2023-05-03T06:50:41;101416.22;;;12.48;38.50
56176;BME280;63065;51.082;17.016;2023-05-03T06:53:06;101414.45;;;12.09;38.20
56176;BME280;63065;51.082;17.016;2023-05-03T06:55:31;101417.53;;;13.68;36.57
56176;BME280;63065;51.082;17.016;2023-05-03T06:57:56;101418.20;;;12.77;37.93
56176;BME280;63065;51.082;17.016;2023-05-03T07:00:22;101416.98;;;12.73;36.75
56176;BME280;63065;51.082;17.016;2023-05-03T07:02:47;101415.33;;;13.14;36.85
56176;BME280;63065;51.082;17.016;2023-05-03T07:05:13;101422.90;;;12.48;35.73
56176;BME280;63065;51.082;17.016;2023-05-03T07:07:38;101422.02;;;12.52;35.21
56176;BME280;63065;51.082;17.016;2023-05-03T07:10:05;101422.73;;;14.05;34.38
56176;BME280;63065;51.082;17.016;2023-05-03T07:12:30;101421.63;;;14.20;33.16
56176;BME280;63065;51.082;17.016;2023-05-03T07:14:55;101421.62;;;15.10;33.14
56176;BME280;63065;51.082;17.016;2023-05-03T07:17:20;101417.77;;;15.01;32.92
56176;BME280;63065;51.082;17.016;2023-05-03T07:19:46;101421.63;;;15.21;32.30
56176;BME280;63065;51.082;17.016;2023-05-03T07:22:12;101422.08;;;13.98;33.84
56176;BME280;63065;51.082;17.016;2023-05-03T07:24:37;101417.60;;;13.81;33.34
56176;BME280;63065;51.082;17.016;2023-05-03T07:27:03;101414.44;;;14.34;32.92
56176;BME280;63065;51.082;17.016;2023-05-03T07:29:29;101410.22;;;14.43;33.77
56176;BME280;63065;51.082;17.016;2023-05-03T07:31:54;101403.13;;;12.76;34.06
56176;BME280;63065;51.082;17.016;2023-05-03T07:34:20;101401.70;;;12.45;35.08
56176;BME280;63065;51.082;17.016;2023-05-03T07:36:46;101405.04;;;14.15;33.77
56176;BME280;63065;51.082;17.016;2023-05-03T07:39:12;101406.66;;;14.52;33.30
56176;BME280;63065;51.082;17.016;2023-05-03T07:41:37;101402.47;;;15.60;30.74
56176;BME280;63065;51.082;17.016;2023-05-03T07:44:03;101395.63;;;16.04;29.39
56176;BME280;63065;51.082;17.016;2023-05-03T07:46:28;101394.74;;;15.87;29.06
56176;BME280;63065;51.082;17.016;2023-05-03T07:48:54;101396.65;;;15.59;29.76
56176;BME280;63065;51.082;17.016;2023-05-03T07:51:19;101405.26;;;13.96;30.75
56176;BME280;63065;51.082;17.016;2023-05-03T07:53:45;101406.19;;;13.92;31.71
56176;BME280;63065;51.082;17.016;2023-05-03T07:56:11;101408.14;;;14.31;31.09
56176;BME280;63065;51.082;17.016;2023-05-03T07:58:36;101397.22;;;15.54;30.31
56176;BME280;63065;51.082;17.016;2023-05-03T08:01:02;101402.32;;;13.98;30.26
56176;BME280;63065;51.082;17.016;2023-05-03T08:03:28;101397.31;;;14.58;29.77
56176;BME280;63065;51.082;17.016;2023-05-03T08:05:54;101394.75;;;15.32;28.86
56176;BME280;63065;51.082;17.016;2023-05-03T08:08:19;101388.50;;;16.06;28.04
56176;BME280;63065;51.082;17.016;2023-05-03T08:10:45;101387.55;;;15.78;28.43
56176;BME280;63065;51.082;17.016;2023-05-03T08:15:37;101394.13;;;15.97;29.13
56176;BME280;63065;51.082;17.016;2023-05-03T08:18:02;101388.25;;;16.70;27.27
56176;BME280;63065;51.082;17.016;2023-05-03T08:20:28;101385.29;;;16.97;28.02
56176;BME280;63065;51.082;17.016;2023-05-03T08:22:54;101383.97;;;17.95;26.93
56176;BME280;63065;51.082;17.016;2023-05-03T08:25:20;101387.33;;;17.72;27.32
56176;BME280;63065;51.082;17.016;2023-05-03T08:27:45;101389.64;;;17.25;27.15
56176;BME280;63065;51.082;17.016;2023-05-03T08:30:11;101394.92;;;17.85;27.06
56176;BME280;63065;51.082;17.016;2023-05-03T08:32:37;101398.52;;;17.28;26.26
56176;BME280;63065;51.082;17.016;2023-05-03T08:35:03;101406.67;;;12.61;29.22
56176;BME280;63065;51.082;17.016;2023-05-03T08:37:28;101408.55;;;13.69;29.43
56176;BME280;63065;51.082;17.016;2023-05-03T08:39:54;101408.33;;;14.79;29.28
56176;BME280;63065;51.082;17.016;2023-05-03T08:42:20;101398.83;;;16.44;28.12
56176;BME280;63065;51.082;17.016;2023-05-03T08:44:46;101401.33;;;16.31;27.36
56176;BME280;63065;51.082;17.016;2023-05-03T08:47:13;101398.38;;;17.11;26.65
56176;BME280;63065;51.082;17.016;2023-05-03T08:49:37;101404.46;;;15.65;27.43
56176;BME280;63065;51.082;17.016;2023-05-03T08:52:04;101408.56;;;14.74;27.81
56176;BME280;63065;51.082;17.016;2023-05-03T08:54:28;101407.41;;;13.29;29.69
56176;BME280;63065;51.082;17.016;2023-05-03T08:56:54;101418.59;;;14.32;30.22
56176;BME280;63065;51.082;17.016;2023-05-03T08:59:20;101411.93;;;14.68;28.53
56176;BME280;63065;51.082;17.016;2023-05-03T09:01:45;101406.22;;;14.45;28.60
56176;BME280;63065;51.082;17.016;2023-05-03T09:04:11;101407.56;;;16.57;29.12
56176;BME280;63065;51.082;17.016;2023-05-03T09:06:37;101405.63;;;17.35;27.57
56176;BME280;63065;51.082;17.016;2023-05-03T09:09:04;101407.17;;;16.92;25.51
56176;BME280;63065;51.082;17.016;2023-05-03T09:11:29;101409.22;;;17.34;26.85
56176;BME280;63065;51.082;17.016;2023-05-03T09:16:23;101420.78;;;14.40;28.63
56176;BME280;63065;51.082;17.016;2023-05-03T09:21:17;101415.89;;;13.80;29.98
56176;BME280;63065;51.082;17.016;2023-05-03T09:23:37;101415.48;;;15.57;28.64
56176;BME280;63065;51.082;17.016;2023-05-03T09:26:03;101407.74;;;15.74;28.82
56176;BME280;63065;51.082;17.016;2023-05-03T09:28:28;101409.12;;;15.29;27.88
56176;BME280;63065;51.082;17.016;2023-05-03T09:31:03;101408.32;;;15.92;28.21
56176;BME280;63065;51.082;17.016;2023-05-03T09:33:27;101414.68;;;12.72;30.60
56176;BME280;63065;51.082;17.016;2023-05-03T09:40:45;101410.13;;;16.53;29.12
56176;BME280;63065;51.082;17.016;2023-05-03T09:43:05;101411.34;;;13.60;29.36
56176;BME280;63065;51.082;17.016;2023-05-03T09:45:28;101409.42;;;15.70;28.72
56176;BME280;63065;51.082;17.016;2023-05-03T09:47:54;101409.09;;;16.21;26.76
56176;BME280;63065;51.082;17.016;2023-05-03T09:50:20;101403.16;;;17.16;26.31
56176;BME280;63065;51.082;17.016;2023-05-03T09:52:46;101399.40;;;17.28;24.99
56176;BME280;63065;51.082;17.016;2023-05-03T09:55:11;101394.85;;;17.98;25.92
56176;BME280;63065;51.082;17.016;2023-05-03T09:57:37;101393.87;;;18.22;24.34
56176;BME280;63065;51.082;17.016;2023-05-03T10:00:03;101395.08;;;18.91;24.43
56176;BME280;63065;51.082;17.016;2023-05-03T10:02:30;101396.25;;;18.24;25.63
56176;BME280;63065;51.082;17.016;2023-05-03T10:04:54;101403.70;;;15.96;26.54
56176;BME280;63065;51.082;17.016;2023-05-03T10:07:20;101398.86;;;17.57;25.95
56176;BME280;63065;51.082;17.016;2023-05-03T10:09:46;101396.18;;;17.03;26.08
56176;BME280;63065;51.082;17.016;2023-05-03T10:12:12;101396.50;;;17.37;26.18
56176;BME280;63065;51.082;17.016;2023-05-03T10:14:40;101403.28;;;15.41;27.49
56176;BME280;63065;51.082;17.016;2023-05-03T10:17:07;101403.14;;;17.09;27.25
56176;BME280;63065;51.082;17.016;2023-05-03T10:19:33;101397.81;;;17.33;27.10
56176;BME280;63065;51.082;17.016;2023-05-03T10:22:01;101393.08;;;17.03;25.59
56176;BME280;63065;51.082;17.016;2023-05-03T10:24:20;101392.62;;;16.66;25.71
56176;BME280;63065;51.082;17.016;2023-05-03T10:26:46;101395.36;;;16.99;27.15
56176;BME280;63065;51.082;17.016;2023-05-03T10:31:43;101401.19;;;14.36;29.67
56176;BME280;63065;51.082;17.016;2023-05-03T10:36:28;101397.62;;;14.62;26.92
56176;BME280;63065;51.082;17.016;2023-05-03T10:38:56;101388.44;;;16.41;26.23
56176;BME280;63065;51.082;17.016;2023-05-03T10:41:23;101386.05;;;17.30;27.09
56176;BME280;63065;51.082;17.016;2023-05-03T10:43:45;101384.77;;;17.01;24.52
56176;BME280;63065;51.082;17.016;2023-05-03T10:48:36;101381.75;;;16.66;27.53
56176;BME280;63065;51.082;17.016;2023-05-03T10:53:34;101381.75;;;18.27;23.98
56176;BME280;63065;51.082;17.016;2023-05-03T10:55:59;101385.03;;;16.78;25.87
56176;BME280;63065;51.082;17.016;2023-05-03T10:58:19;101377.47;;;17.47;25.20
56176;BME280;63065;51.082;17.016;2023-05-03T11:00:45;101375.59;;;17.59;24.54
56176;BME280;63065;51.082;17.016;2023-05-03T11:05:38;101379.91;;;17.25;27.12
56176;BME280;63065;51.082;17.016;2023-05-03T11:08:09;101378.75;;;18.03;25.06
56176;BME280;63065;51.082;17.016;2023-05-03T11:10:29;101380.11;;;15.28;25.90
56176;BME280;63065;51.082;17.016;2023-05-03T11:12:54;101379.25;;;17.30;26.30
56176;BME280;63065;51.082;17.016;2023-05-03T11:15:19;101378.13;;;18.63;26.07
56176;BME280;63065;51.082;17.016;2023-05-03T11:17:45;101374.47;;;18.83;23.84
56176;BME280;63065;51.082;17.016;2023-05-03T11:20:11;101373.00;;;19.50;24.04
56176;BME280;63065;51.082;17.016;2023-05-03T11:22:37;101374.41;;;19.27;23.57
56176;BME280;63065;51.082;17.016;2023-05-03T11:25:02;101375.83;;;19.97;23.20
56176;BME280;63065;51.082;17.016;2023-05-03T11:27:28;101376.24;;;19.39;24.37
56176;BME280;63065;51.082;17.016;2023-05-03T11:29:53;101373.45;;;19.98;23.08
56176;BME280;63065;51.082;17.016;2023-05-03T11:32:19;101375.82;;;19.93;23.46
56176;BME280;63065;51.082;17.016;2023-05-03T11:34:44;101378.16;;;19.44;23.99
56176;BME280;63065;51.082;17.016;2023-05-03T11:37:09;101375.18;;;19.98;22.56
56176;BME280;63065;51.082;17.016;2023-05-03T11:39:35;101375.74;;;17.05;24.15
56176;BME280;63065;51.082;17.016;2023-05-03T11:42:02;101373.77;;;18.77;23.69
56176;BME280;63065;51.082;17.016;2023-05-03T11:44:26;101374.54;;;17.34;25.73
56176;BME280;63065;51.082;17.016;2023-05-03T11:46:54;101369.17;;;18.08;24.55
56176;BME280;63065;51.082;17.016;2023-05-03T11:49:18;101373.97;;;18.53;23.69
56176;BME280;63065;51.082;17.016;2023-05-03T11:51:44;101373.32;;;19.05;23.91
56176;BME280;63065;51.082;17.016;2023-05-03T11:54:10;101373.39;;;18.44;23.26
56176;BME280;63065;51.082;17.016;2023-05-03T11:56:35;101374.70;;;18.92;24.51
56176;BME280;63065;51.082;17.016;2023-05-03T11:59:01;101372.58;;;18.21;23.08
56176;BME280;63065;51.082;17.016;2023-05-03T12:01:27;101370.53;;;18.39;23.79
56176;BME280;63065;51.082;17.016;2023-05-03T12:03:54;101366.81;;;19.14;21.91
56176;BME280;63065;51.082;17.016;2023-05-03T12:06:18;101368.68;;;19.99;22.35
56176;BME280;63065;51.082;17.016;2023-05-03T12:08:44;101367.80;;;19.46;22.05
56176;BME280;63065;51.082;17.016;2023-05-03T12:11:09;101367.31;;;16.08;23.51
56176;BME280;63065;51.082;17.016;2023-05-03T12:13:36;101371.64;;;18.57;24.28
56176;BME280;63065;51.082;17.016;2023-05-03T12:16:01;101361.48;;;19.58;22.97
56176;BME280;63065;51.082;17.016;2023-05-03T12:18:27;101360.13;;;19.80;22.85
56176;BME280;63065;51.082;17.016;2023-05-03T12:20:55;101369.33;;;19.25;23.21
56176;BME280;63065;51.082;17.016;2023-05-03T12:23:18;101364.08;;;19.38;21.62
56176;BME280;63065;51.082;17.016;2023-05-03T12:25:44;101357.35;;;20.20;21.39
56176;BME280;63065;51.082;17.016;2023-05-03T12:28:10;101357.45;;;17.08;23.57
56176;BME280;63065;51.082;17.016;2023-05-03T12:30:35;101360.44;;;19.00;22.98
56176;BME280;63065;51.082;17.016;2023-05-03T12:33:01;101354.19;;;19.39;22.28
56176;BME280;63065;51.082;17.016;2023-05-03T12:35:27;101354.66;;;19.45;22.55
56176;BME280;63065;51.082;17.016;2023-05-03T12:37:53;101360.32;;;17.93;22.82
56176;BME280;63065;51.082;17.016;2023-05-03T12:40:19;101351.13;;;19.13;23.03
56176;BME280;63065;51.082;17.016;2023-05-03T12:42:44;101349.43;;;18.34;21.48
56176;BME280;63065;51.082;17.016;2023-05-03T12:45:11;101344.48;;;19.15;22.27
56176;BME280;63065;51.082;17.016;2023-05-03T12:47:36;101337.17;;;19.50;22.50
56176;BME280;63065;51.082;17.016;2023-05-03T12:50:02;101336.44;;;19.92;22.59
56176;BME280;63065;51.082;17.016;2023-05-03T12:52:28;101336.99;;;17.36;22.85
56176;BME280;63065;51.082;17.016;2023-05-03T12:54:53;101326.73;;;19.97;23.01